Time;durP1;ratioP1;P1;durP2;ratioP2;P2;SDS_P1;SDS_P2;PMS_P1;PMS_P2;Temp;Humidity;BMP_temperature;BMP_pressure;BME280_temperature;BME280_humidity;BME280_pressure;Samples;Min_cycle;Max_cycle;Signal;HPM_P1;HPM_P2
2021/12/24 00:01:10;;;;;;;1.20;1.20;;;22.20;42.00;;;;;;5025079;28;43539;-62
2021/12/24 00:03:38;;;;;;;1.35;1.30;;;22.20;42.00;;;;;;5026348;28;43882;-62
2021/12/24 00:06:07;;;;;;;1.20;1.20;;;22.20;42.10;;;;;;5027160;28;43398;-63
2021/12/24 00:08:35;;;;;;;1.58;1.50;;;22.10;42.00;;;;;;5028112;28;43632;-62
2021/12/24 00:11:04;;;;;;;1.08;1.08;;;22.20;42.10;;;;;;5028521;28;43468;-62
2021/12/24 00:13:38;;;;;;;1.20;1.17;;;22.20;42.10;;;;;;5025881;28;44001;-62
2021/12/24 00:16:17;;;;;;;1.10;1.10;;;22.10;42.10;;;;;;5039308;28;44295;-62
2021/12/24 00:18:54;;;;;;;1.00;1.00;;;22.10;42.10;;;;;;5028209;28;43529;-62
2021/12/24 00:35:27;;;;;;;1.05;1.05;;;22.10;42.30;;;;;;5023367;28;44026;-62
2021/12/24 00:37:54;;;;;;;1.02;1.02;;;22.10;42.30;;;;;;5025086;28;43495;-62
2021/12/24 00:40:22;;;;;;;1.02;1.02;;;22.10;42.30;;;;;;5021809;28;43423;-62
2021/12/24 00:42:55;;;;;;;0.80;0.80;;;22.10;42.30;;;;;;5019837;28;43528;-62
2021/12/24 00:45:27;;;;;;;1.02;1.02;;;22.10;42.30;;;;;;5017279;28;44878;-63
2021/12/24 00:47:57;;;;;;;0.80;0.80;;;22.00;42.30;;;;;;5026106;28;43803;-62
2021/12/24 00:50:34;;;;;;;1.00;1.00;;;22.00;42.30;;;;;;5031541;28;43440;-62
2021/12/24 00:53:04;;;;;;;1.00;1.00;;;22.00;42.30;;;;;;5055871;28;44036;-62
2021/12/24 00:55:33;;;;;;;0.85;0.85;;;22.00;42.40;;;;;;5041240;28;44615;-63
2021/12/24 00:58:04;;;;;;;0.80;0.80;;;22.00;42.40;;;;;;5030114;28;43662;-62
2021/12/24 01:00:36;;;;;;;0.77;0.77;;;22.00;42.40;;;;;;5025280;28;43794;-63
2021/12/24 01:03:09;;;;;;;0.90;0.90;;;22.00;42.40;;;;;;5029699;28;43392;-61
2021/12/24 01:05:38;;;;;;;0.70;0.70;;;22.00;42.40;;;;;;5029222;28;43811;-62
2021/12/24 01:08:07;;;;;;;0.90;0.90;;;22.00;42.40;;;;;;5020879;28;43455;-62
2021/12/24 01:10:40;;;;;;;0.73;0.73;;;22.00;42.40;;;;;;5022948;28;43558;-62
2021/12/24 01:13:08;;;;;;;0.80;0.80;;;22.00;42.50;;;;;;5025927;28;43547;-62
2021/12/24 01:15:41;;;;;;;0.73;0.73;;;21.90;42.40;;;;;;5026173;28;44708;-62
2021/12/24 01:18:25;;;;;;;0.60;0.60;;;21.90;42.40;;;;;;5034401;28;43920;-62
2021/12/24 01:21:06;;;;;;;0.70;0.70;;;22.00;42.50;;;;;;5026935;28;43450;-62
2021/12/24 07:09:42;;;;;;;2.55;1.10;;;19.80;46.70;;;;;;5010293;27;43465;-65
2021/12/24 07:12:11;;;;;;;1.83;1.27;;;20.60;44.90;;;;;;4993513;28;43533;-65
2021/12/24 07:14:40;;;;;;;1.27;1.17;;;20.90;43.80;;;;;;4995043;28;43457;-64
2021/12/24 07:17:08;;;;;;;1.38;0.90;;;21.10;43.80;;;;;;4995314;28;43626;-64
2021/12/24 07:19:36;;;;;;;1.30;1.20;;;21.00;43.60;;;;;;4995439;28;44089;-63
2021/12/24 07:22:07;;;;;;;1.08;1.08;;;21.00;43.80;;;;;;4993646;28;43408;-64
2021/12/24 07:24:36;;;;;;;1.40;1.30;;;20.90;43.70;;;;;;4989714;28;43494;-64
2021/12/24 07:27:04;;;;;;;1.23;1.15;;;20.90;44.00;;;;;;4996835;28;43494;-64
2021/12/24 07:29:32;;;;;;;1.20;1.00;;;20.80;43.90;;;;;;4996852;27;44033;-64
2021/12/24 07:31:59;;;;;;;0.95;0.95;;;20.70;44.10;;;;;;4994643;28;43470;-64
2021/12/24 07:34:27;;;;;;;1.13;1.13;;;20.70;44.10;;;;;;4990968;28;43406;-64
2021/12/24 07:36:54;;;;;;;1.30;1.15;;;20.70;44.30;;;;;;4995378;28;43429;-64
2021/12/24 07:39:22;;;;;;;1.00;1.00;;;20.60;44.30;;;;;;4996372;28;43783;-64
2021/12/24 07:41:50;;;;;;;2.05;1.10;;;20.60;44.50;;;;;;4994675;28;43752;-64
2021/12/24 07:44:18;;;;;;;1.25;1.10;;;20.50;44.40;;;;;;4984722;28;43413;-65
2021/12/24 07:46:53;;;;;;;0.85;0.75;;;20.60;44.50;;;;;;4993595;28;43473;-65
2021/12/24 07:52:08;;;;;;;0.90;0.90;;;20.60;44.30;;;;;;4996022;27;43569;-64
2021/12/24 07:54:39;;;;;;;0.90;0.90;;;20.60;44.20;;;;;;5053637;27;43424;-64
2021/12/24 07:57:09;;;;;;;0.90;0.90;;;20.60;44.30;;;;;;5021853;28;43492;-64
2021/12/24 07:59:39;;;;;;;0.90;0.90;;;20.60;44.30;;;;;;4996395;28;43876;-64
2021/12/24 08:02:15;;;;;;;0.80;0.80;;;20.60;44.40;;;;;;4996013;28;43974;-64
2021/12/24 08:04:45;;;;;;;0.70;0.70;;;20.60;45.00;;;;;;4993585;28;43551;-65
2021/12/24 08:07:15;;;;;;;0.77;0.77;;;20.60;44.50;;;;;;4975866;28;43508;-64
2021/12/24 08:09:44;;;;;;;0.70;0.70;;;20.60;44.30;;;;;;4995714;28;44072;-64
2021/12/24 08:12:12;;;;;;;0.57;0.57;;;20.60;44.50;;;;;;4995732;28;43469;-64
2021/12/24 08:14:40;;;;;;;0.73;0.73;;;20.60;44.50;;;;;;5000184;28;43466;-64
2021/12/24 08:17:08;;;;;;;0.80;0.70;;;20.60;44.60;;;;;;4983018;28;43446;-63
2021/12/24 08:19:36;;;;;;;0.90;0.90;;;20.60;44.70;;;;;;4977634;28;43808;-64
2021/12/24 08:22:04;;;;;;;0.52;0.52;;;20.50;44.60;;;;;;4982931;28;43396;-64
2021/12/24 08:24:32;;;;;;;0.77;0.75;;;20.50;44.80;;;;;;4983093;28;43430;-64
2021/12/24 08:27:00;;;;;;;0.68;0.68;;;20.50;44.80;;;;;;4982824;28;43457;-63
2021/12/24 08:29:27;;;;;;;0.70;0.70;;;20.50;44.80;;;;;;4982608;28;44017;-64
2021/12/24 08:31:55;;;;;;;0.75;0.70;;;20.50;44.70;;;;;;4982426;28;43652;-64
2021/12/24 08:34:23;;;;;;;0.63;0.63;;;20.50;44.70;;;;;;4983166;28;43380;-64
2021/12/24 08:36:52;;;;;;;0.60;0.60;;;20.50;44.70;;;;;;4982856;28;43573;-64
2021/12/24 08:39:21;;;;;;;0.50;0.50;;;20.50;44.70;;;;;;4982500;28;44940;-63
2021/12/24 08:41:54;;;;;;;0.70;0.70;;;20.50;44.80;;;;;;4971730;28;43708;-64
2021/12/24 08:44:24;;;;;;;0.60;0.60;;;20.50;44.80;;;;;;4971712;28;43459;-64
2021/12/24 08:46:51;;;;;;;0.70;0.70;;;20.50;44.80;;;;;;5032923;27;43482;-63
2021/12/24 08:49:20;;;;;;;0.68;0.68;;;20.40;44.80;;;;;;4982570;28;44043;-64
2021/12/24 08:51:49;;;;;;;0.80;0.80;;;20.50;44.70;;;;;;4981066;28;44172;-63
2021/12/24 08:54:18;;;;;;;0.80;0.80;;;20.50;44.80;;;;;;4982761;28;43528;-64
2021/12/24 08:56:52;;;;;;;0.60;0.60;;;20.50;44.80;;;;;;4979053;28;43510;-64
2021/12/24 08:59:21;;;;;;;0.70;0.70;;;20.50;44.80;;;;;;4961366;28;44670;-63
2021/12/24 09:01:48;;;;;;;0.60;0.60;;;20.50;44.80;;;;;;4982272;28;43522;-64
2021/12/24 09:04:16;;;;;;;0.63;0.63;;;20.50;44.80;;;;;;4982464;28;43563;-64
2021/12/24 09:06:44;;;;;;;0.70;0.70;;;20.50;44.80;;;;;;4982405;28;43461;-64
2021/12/24 09:09:11;;;;;;;0.95;0.70;;;20.50;44.80;;;;;;4982144;28;44108;-63
2021/12/24 09:11:41;;;;;;;0.60;0.60;;;20.50;44.80;;;;;;4982142;28;43553;-64
2021/12/24 09:14:09;;;;;;;0.50;0.50;;;20.50;44.90;;;;;;4982642;28;43506;-64
2021/12/24 09:16:39;;;;;;;0.50;0.50;;;20.50;44.80;;;;;;4981941;28;43449;-63
2021/12/24 09:19:11;;;;;;;0.55;0.55;;;20.50;44.90;;;;;;4982461;28;44058;-64
2021/12/24 09:21:39;;;;;;;0.60;0.60;;;20.50;45.00;;;;;;4979557;28;43456;-63
2021/12/24 09:24:08;;;;;;;0.57;0.57;;;20.50;44.90;;;;;;4974976;28;43468;-62
2021/12/24 09:26:37;;;;;;;0.98;0.98;;;20.50;45.00;;;;;;4980678;28;43511;-66
2021/12/24 09:29:08;;;;;;;1.50;1.40;;;20.60;45.10;;;;;;5035343;28;45260;-62
2021/12/24 09:31:36;;;;;;;1.33;1.02;;;20.60;45.10;;;;;;5036774;27;43438;-62
2021/12/24 09:34:04;;;;;;;1.10;1.10;;;20.60;45.00;;;;;;5005449;28;43589;-63
2021/12/24 09:36:32;;;;;;;1.98;1.10;;;20.70;45.00;;;;;;5007977;28;43569;-64
2021/12/24 09:39:03;;;;;;;1.17;1.08;;;20.80;44.90;;;;;;5035613;28;43805;-61
2021/12/24 09:41:30;;;;;;;1.52;1.15;;;20.90;44.80;;;;;;4998384;28;43565;-62
2021/12/24 09:44:00;;;;;;;1.13;1.10;;;21.00;44.90;;;;;;5012577;28;43572;-63
2021/12/24 09:46:30;;;;;;;1.17;1.17;;;21.10;44.80;;;;;;5006035;28;43592;-63
2021/12/24 09:48:58;;;;;;;0.85;0.82;;;21.20;44.70;;;;;;5018762;28;43802;-63
2021/12/24 09:51:27;;;;;;;0.98;0.98;;;21.20;44.60;;;;;;4982119;28;43976;-63
2021/12/24 09:53:56;;;;;;;0.80;0.80;;;21.30;44.60;;;;;;5003370;28;43557;-63
2021/12/24 09:56:24;;;;;;;0.98;0.98;;;21.40;44.50;;;;;;4994582;28;43607;-63
2021/12/24 09:58:51;;;;;;;1.92;0.80;;;21.40;44.50;;;;;;4982966;28;43630;-63
2021/12/24 10:01:58;;;;;;;1.02;1.00;;;21.50;44.40;;;;;;4989983;28;44150;-63
2021/12/24 10:04:28;;;;;;;0.95;0.93;;;21.50;44.30;;;;;;5041680;28;44057;-64
2021/12/24 10:07:04;;;;;;;0.90;0.90;;;21.60;44.30;;;;;;4995075;28;44062;-64
2021/12/24 10:09:41;;;;;;;0.90;0.90;;;21.60;44.30;;;;;;5014770;28;43933;-63
2021/12/24 10:12:17;;;;;;;1.40;1.00;;;21.60;44.30;;;;;;5009263;28;43645;-61
2021/12/24 10:14:51;;;;;;;1.10;1.10;;;21.70;44.50;;;;;;4990274;27;43488;-63
2021/12/24 10:17:34;;;;;;;1.02;1.02;;;21.70;44.50;;;;;;4993426;28;43545;-63
2021/12/24 10:20:15;;;;;;;0.90;0.90;;;21.80;44.50;;;;;;5004222;28;44980;-62
2021/12/24 10:22:47;;;;;;;1.70;1.08;;;21.90;44.50;;;;;;5018038;28;43505;-63
2021/12/24 10:25:16;;;;;;;2.67;1.10;;;22.00;44.70;;;;;;4985551;28;43810;-62
2021/12/24 10:27:44;;;;;;;1.20;1.10;;;22.10;44.70;;;;;;4999353;28;43641;-62
2021/12/24 10:30:21;;;;;;;2.88;1.23;;;22.20;44.50;;;;;;4994072;28;44963;-61
2021/12/24 10:32:51;;;;;;;0.90;0.90;;;22.30;44.40;;;;;;4999484;28;43998;-63
2021/12/24 10:35:29;;;;;;;1.73;1.23;;;22.40;44.30;;;;;;4994529;28;43469;-61
2021/12/24 10:38:17;;;;;;;0.90;0.90;;;22.50;44.10;;;;;;4998533;28;43539;-61
2021/12/24 10:41:08;;;;;;;1.42;1.27;;;22.60;43.90;;;;;;5005120;28;44797;-61
2021/12/24 10:43:37;;;;;;;4.05;1.15;;;22.70;43.50;;;;;;5000606;28;43477;-60
2021/12/24 10:46:18;;;;;;;3.13;1.25;;;22.70;43.50;;;;;;4998795;28;43419;-60
2021/12/24 10:49:04;;;;;;;2.78;0.95;;;22.70;43.40;;;;;;4983031;28;43570;-60
2021/12/24 10:51:59;;;;;;;0.77;0.77;;;22.80;43.30;;;;;;5040255;27;45143;-61
2021/12/24 10:54:27;;;;;;;1.13;0.90;;;22.90;43.30;;;;;;4999186;28;44112;-60
2021/12/24 10:57:14;;;;;;;1.55;1.00;;;22.90;43.20;;;;;;4978048;28;43522;-60
2021/12/24 10:59:44;;;;;;;1.00;0.80;;;22.90;43.10;;;;;;4988036;28;43678;-60
2021/12/24 11:02:13;;;;;;;1.50;0.95;;;23.00;43.20;;;;;;5005727;28;45058;-62
2021/12/24 11:04:40;;;;;;;0.90;0.90;;;23.00;43.10;;;;;;4992668;28;43452;-61
2021/12/24 11:07:29;;;;;;;0.80;0.80;;;23.00;43.00;;;;;;4996863;28;43608;-60
2021/12/24 11:10:06;;;;;;;1.85;0.80;;;23.00;43.00;;;;;;4998223;28;43505;-60
2021/12/24 11:12:39;;;;;;;0.80;0.80;;;23.10;43.00;;;;;;5009625;28;43791;-60
2021/12/24 11:15:25;;;;;;;0.80;0.80;;;23.10;43.00;;;;;;5002775;28;43424;-61
2021/12/24 11:17:55;;;;;;;1.50;0.80;;;23.10;43.00;;;;;;5001712;28;43456;-61
2021/12/24 11:20:23;;;;;;;0.70;0.70;;;23.10;43.10;;;;;;5007780;28;43507;-60
2021/12/24 11:22:51;;;;;;;0.80;0.80;;;23.10;43.10;;;;;;4983603;28;43942;-61
2021/12/24 11:25:20;;;;;;;0.60;0.60;;;23.10;43.10;;;;;;4999937;28;43695;-59
2021/12/24 11:27:47;;;;;;;1.30;0.80;;;23.10;43.10;;;;;;4987938;27;43908;-61
2021/12/24 11:30:16;;;;;;;0.70;0.70;;;23.10;43.10;;;;;;4998078;28;43498;-60
2021/12/24 11:32:45;;;;;;;0.70;0.70;;;23.10;43.10;;;;;;4990067;28;44084;-63
2021/12/24 11:35:13;;;;;;;0.70;0.70;;;23.10;43.30;;;;;;4997533;28;43543;-59
2021/12/24 11:37:44;;;;;;;0.75;0.70;;;23.10;43.30;;;;;;4981552;28;43497;-60
2021/12/24 11:40:14;;;;;;;0.80;0.80;;;23.10;43.20;;;;;;5002696;28;43451;-60
2021/12/24 11:42:51;;;;;;;0.63;0.60;;;23.10;43.40;;;;;;4990231;28;43796;-60
2021/12/24 11:45:21;;;;;;;1.08;0.73;;;23.10;43.30;;;;;;4991146;28;43982;-60
2021/12/24 11:47:50;;;;;;;0.82;0.70;;;23.10;43.30;;;;;;4984655;28;43432;-60
2021/12/24 11:50:18;;;;;;;0.93;0.70;;;23.10;43.30;;;;;;4990927;28;43503;-60
2021/12/24 11:52:49;;;;;;;0.88;0.88;;;23.10;44.00;;;;;;4977621;28;44680;-60
2021/12/24 11:55:18;;;;;;;0.80;0.70;;;23.10;43.30;;;;;;4993990;28;43439;-61
2021/12/24 11:58:02;;;;;;;0.70;0.70;;;23.10;43.30;;;;;;4981844;28;43579;-61
2021/12/24 12:00:41;;;;;;;1.02;0.93;;;23.10;43.30;;;;;;4979982;28;43477;-61
2021/12/24 12:03:10;;;;;;;1.38;0.75;;;23.10;43.30;;;;;;4983276;28;44677;-61
2021/12/24 12:05:41;;;;;;;1.00;0.80;;;23.10;43.30;;;;;;4990434;28;43545;-61
2021/12/24 12:08:33;;;;;;;0.85;0.80;;;23.10;43.30;;;;;;4988797;28;43485;-61
2021/12/24 12:11:21;;;;;;;0.90;0.90;;;23.10;43.30;;;;;;5002526;28;43518;-61
2021/12/24 12:13:55;;;;;;;1.05;0.80;;;23.10;43.30;;;;;;4989835;28;43800;-62
2021/12/24 12:16:47;;;;;;;0.90;0.80;;;23.10;43.40;;;;;;4991475;28;43485;-61
2021/12/24 12:19:33;;;;;;;0.90;0.90;;;23.10;43.40;;;;;;4979930;28;43499;-61
2021/12/24 12:23:01;;;;;;;0.85;0.80;;;23.10;43.40;;;;;;4993666;28;43546;-60
2021/12/24 12:25:29;;;;;;;0.77;0.77;;;23.10;43.40;;;;;;4986810;28;44687;-60
2021/12/24 12:28:02;;;;;;;0.80;0.80;;;23.10;43.40;;;;;;4980953;28;44013;-60
2021/12/24 12:30:39;;;;;;;0.93;0.75;;;23.10;43.40;;;;;;4988129;28;43457;-61
2021/12/24 12:33:11;;;;;;;0.75;0.75;;;23.10;43.40;;;;;;4985513;28;43612;-62
2021/12/24 12:35:46;;;;;;;0.88;0.57;;;23.10;43.50;;;;;;4983425;28;44859;-59
2021/12/24 12:38:34;;;;;;;1.25;0.80;;;23.10;43.50;;;;;;4977162;28;43414;-61
2021/12/24 12:41:21;;;;;;;0.77;0.77;;;23.10;43.50;;;;;;4989016;28;43514;-60
2021/12/24 12:43:50;;;;;;;0.73;0.73;;;23.00;43.50;;;;;;4992054;28;43513;-60
2021/12/24 12:46:20;;;;;;;0.60;0.52;;;23.00;43.50;;;;;;4994318;28;44688;-60
2021/12/24 12:48:50;;;;;;;1.02;0.80;;;23.00;43.50;;;;;;4980552;28;44408;-61
2021/12/24 12:51:20;;;;;;;0.63;0.60;;;23.00;43.50;;;;;;4984278;28;43487;-62
2021/12/24 12:53:50;;;;;;;0.80;0.80;;;23.00;43.50;;;;;;4984996;28;44096;-61
2021/12/24 12:56:30;;;;;;;0.70;0.70;;;23.10;43.60;;;;;;4980232;28;43799;-60
2021/12/24 12:58:59;;;;;;;0.80;0.80;;;23.10;43.50;;;;;;4980464;28;44962;-61
2021/12/24 13:01:27;;;;;;;0.98;0.98;;;23.10;43.60;;;;;;4984289;28;43543;-60
2021/12/24 13:03:58;;;;;;;0.82;0.82;;;23.10;43.80;;;;;;4991398;28;43457;-62
2021/12/24 13:06:50;;;;;;;0.50;0.50;;;23.10;43.60;;;;;;4987877;28;44035;-60
2021/12/24 13:09:24;;;;;;;0.45;0.45;;;23.10;43.60;;;;;;4989586;28;43474;-60
2021/12/24 13:11:54;;;;;;;0.57;0.52;;;23.10;43.60;;;;;;4981952;28;43428;-62
2021/12/24 13:14:25;;;;;;;0.60;0.60;;;23.10;43.60;;;;;;4983681;28;43559;-60
2021/12/24 13:17:15;;;;;;;;;;;23.10;43.60;;;;;;5007188;28;43804;-61
2021/12/24 13:22:32;;;;;;;0.60;0.50;;;23.10;43.60;;;;;;4978968;28;43480;-61
2021/12/24 13:25:06;;;;;;;0.63;0.63;;;23.10;43.60;;;;;;4983900;28;43488;-61
2021/12/24 13:27:39;;;;;;;1.27;0.63;;;23.10;43.60;;;;;;4979778;28;44251;-60
2021/12/24 13:30:22;;;;;;;0.50;0.50;;;23.10;43.50;;;;;;4978653;28;43470;-60
2021/12/24 13:32:53;;;;;;;0.40;0.40;;;23.10;43.60;;;;;;4985724;28;43434;-60
2021/12/24 13:35:27;;;;;;;0.40;0.40;;;23.10;43.60;;;;;;4985784;28;44101;-60
2021/12/24 13:37:56;;;;;;;0.40;0.40;;;23.10;43.60;;;;;;4983456;28;43791;-60
2021/12/24 13:40:26;;;;;;;0.40;0.40;;;23.10;43.60;;;;;;4972198;28;43703;-59
2021/12/24 13:43:06;;;;;;;0.50;0.50;;;23.10;43.60;;;;;;4982562;28;43850;-60
2021/12/24 13:45:37;;;;;;;0.73;0.47;;;23.10;43.60;;;;;;4993224;28;43516;-61
2021/12/24 13:48:18;;;;;;;1.25;0.52;;;23.10;43.60;;;;;;4979511;28;44375;-62
2021/12/24 13:56:48;;;;;;;5.70;1.10;;;23.10;43.50;;;;;;4976872;28;43499;-61
2021/12/24 13:59:22;;;;;;;4.30;0.60;;;23.10;43.70;;;;;;4979903;28;44703;-62
2021/12/24 14:01:50;;;;;;;4.10;0.60;;;23.00;43.60;;;;;;4979657;28;43709;-61
2021/12/24 14:04:21;;;;;;;4.13;0.93;;;23.10;43.70;;;;;;4983663;28;44080;-60
2021/12/24 14:06:55;;;;;;;2.30;0.73;;;23.00;43.60;;;;;;4980452;28;43541;-61
2021/12/24 14:09:31;;;;;;;3.20;0.60;;;23.00;43.60;;;;;;4986672;27;43868;-61
2021/12/24 14:12:06;;;;;;;1.75;0.80;;;23.00;43.60;;;;;;4979504;28;43759;-62
2021/12/24 14:15:06;;;;;;;2.83;0.70;;;23.00;43.60;;;;;;5002681;28;43518;-61
2021/12/24 14:17:51;;;;;;;0.82;0.50;;;23.00;43.70;;;;;;4990721;28;43494;-60
2021/12/24 14:20:27;;;;;;;3.70;0.90;;;23.00;43.70;;;;;;4978887;28;45038;-60
2021/12/24 14:22:55;;;;;;;0.98;0.50;;;23.00;43.80;;;;;;4980456;28;43427;-61
2021/12/24 14:25:22;;;;;;;1.17;0.50;;;23.10;43.80;;;;;;4979139;28;43473;-61
2021/12/24 14:27:50;;;;;;;1.95;0.60;;;23.10;43.80;;;;;;4980753;28;43569;-61
2021/12/24 14:30:22;;;;;;;2.47;0.70;;;23.10;43.70;;;;;;4982486;28;43789;-61
2021/12/24 14:32:50;;;;;;;3.10;0.95;;;23.10;43.70;;;;;;4985078;28;43510;-61
2021/12/24 14:35:21;;;;;;;0.60;0.50;;;23.10;43.60;;;;;;4991376;28;43528;-61
2021/12/24 14:37:59;;;;;;;0.50;0.40;;;23.00;43.50;;;;;;4989162;28;43477;-61
2021/12/24 14:40:30;;;;;;;0.60;0.35;;;23.00;43.80;;;;;;4973664;28;44149;-61
2021/12/24 14:42:59;;;;;;;1.88;0.45;;;23.10;43.80;;;;;;4987636;28;43471;-60
2021/12/24 14:45:41;;;;;;;0.57;0.50;;;23.00;43.70;;;;;;4979004;28;43560;-61
2021/12/24 14:48:08;;;;;;;0.75;0.57;;;23.10;43.40;;;;;;4977700;28;43377;-61
2021/12/24 14:50:46;;;;;;;0.90;0.60;;;23.10;43.30;;;;;;4979112;28;43853;-64
2021/12/24 14:53:40;;;;;;;2.15;0.70;;;23.10;43.50;;;;;;4976658;28;44012;-64
2021/12/24 14:56:22;;;;;;;1.92;0.77;;;23.10;42.90;;;;;;4978767;28;43510;-64
2021/12/24 14:59:02;;;;;;;1.00;0.80;;;23.10;43.00;;;;;;4989842;28;43547;-64
2021/12/24 15:01:44;;;;;;;2.70;0.95;;;23.10;42.70;;;;;;4977954;28;43796;-64
2021/12/24 15:04:13;;;;;;;2.00;0.73;;;23.10;42.80;;;;;;4986788;28;44039;-65
2021/12/24 15:06:50;;;;;;;2.85;1.17;;;23.10;42.90;;;;;;4978576;28;43456;-64
2021/12/24 15:09:26;;;;;;;2.85;1.45;;;23.10;42.70;;;;;;4963333;28;43539;-64
2021/12/24 15:11:54;;;;;;;2.65;1.33;;;23.10;42.70;;;;;;4989689;28;44708;-64
2021/12/24 15:14:27;;;;;;;9.93;6.70;;;23.10;42.90;;;;;;4984805;28;43676;-65
2021/12/24 15:16:58;;;;;;;11.93;7.65;;;23.00;42.50;;;;;;4984043;28;44117;-65
2021/12/24 15:19:25;;;;;;;14.77;8.88;;;23.00;42.60;;;;;;4986243;28;43954;-66
2021/12/24 15:21:53;;;;;;;15.52;8.80;;;23.00;42.60;;;;;;5030637;27;44701;-65
2021/12/24 15:24:20;;;;;;;17.40;9.50;;;23.10;42.70;;;;;;5021582;27;43482;-65
2021/12/24 15:26:48;;;;;;;14.50;8.27;;;23.10;42.70;;;;;;5022897;28;43538;-65
2021/12/24 15:29:16;;;;;;;16.55;8.57;;;23.10;42.70;;;;;;5028513;27;43486;-64
2021/12/24 15:31:45;;;;;;;12.10;7.47;;;23.10;42.80;;;;;;5026692;28;44683;-65
2021/12/24 15:34:13;;;;;;;12.82;7.78;;;23.10;42.90;;;;;;5026042;28;43519;-64
2021/12/24 15:36:41;;;;;;;12.05;7.13;;;23.10;42.90;;;;;;5023595;28;43593;-64
2021/12/24 15:39:11;;;;;;;12.20;7.25;;;23.10;42.90;;;;;;5032084;28;43546;-65
2021/12/24 15:41:45;;;;;;;12.88;7.30;;;23.10;43.00;;;;;;5022585;28;44678;-64
2021/12/24 15:44:14;;;;;;;9.82;6.22;;;23.10;43.10;;;;;;5032487;28;43490;-64
2021/12/24 15:46:44;;;;;;;11.35;6.63;;;23.10;43.10;;;;;;5027582;28;43500;-64
2021/12/24 15:49:12;;;;;;;10.15;6.38;;;23.10;43.10;;;;;;5029576;28;43482;-64
2021/12/24 15:51:39;;;;;;;10.02;5.75;;;23.10;43.10;;;;;;5028799;28;43879;-64
2021/12/24 15:54:27;;;;;;;10.00;5.40;;;23.10;43.00;;;;;;5033665;28;43463;-64
2021/12/24 15:56:54;;;;;;;10.48;5.75;;;23.10;43.00;;;;;;5015465;28;43505;-64
2021/12/24 15:59:22;;;;;;;10.07;5.55;;;23.10;43.00;;;;;;4986394;28;43582;-65
2021/12/24 16:01:50;;;;;;;8.68;5.00;;;23.10;43.00;;;;;;4986114;28;43810;-65
2021/12/24 16:04:18;;;;;;;8.05;5.10;;;23.10;43.00;;;;;;4987557;28;44290;-65
2021/12/24 16:06:45;;;;;;;7.07;4.88;;;23.10;43.00;;;;;;4982220;28;43475;-64
2021/12/24 16:09:14;;;;;;;8.30;4.72;;;23.10;43.00;;;;;;4988384;28;43483;-64
2021/12/24 16:11:41;;;;;;;8.70;4.28;;;23.10;43.10;;;;;;4991609;28;43626;-63
2021/12/24 16:14:09;;;;;;;7.97;4.50;;;23.10;43.10;;;;;;4978214;28;43542;-63
2021/12/24 16:16:40;;;;;;;6.18;4.10;;;23.10;43.10;;;;;;4981123;28;43557;-63
2021/12/24 16:19:11;;;;;;;7.47;3.92;;;23.10;43.00;;;;;;4979023;28;43424;-64
2021/12/24 16:21:42;;;;;;;5.70;4.22;;;23.10;43.00;;;;;;4980204;28;44031;-64
2021/12/24 16:24:17;;;;;;;5.78;3.92;;;23.10;43.00;;;;;;4979928;28;43473;-63
2021/12/24 16:26:49;;;;;;;5.97;3.72;;;23.00;43.00;;;;;;4986872;28;43546;-64
2021/12/24 16:29:19;;;;;;;4.75;3.90;;;23.00;43.10;;;;;;4989537;28;43474;-64
2021/12/24 16:31:48;;;;;;;5.93;3.80;;;23.00;43.00;;;;;;4980038;28;43820;-64
2021/12/24 16:34:17;;;;;;;5.88;4.00;;;23.00;43.10;;;;;;4979471;28;43586;-64
2021/12/24 16:36:44;;;;;;;5.25;3.58;;;23.00;43.00;;;;;;4991258;28;43409;-64
2021/12/24 16:39:12;;;;;;;4.38;3.20;;;23.00;43.00;;;;;;4991860;28;43558;-63
2021/12/24 16:41:42;;;;;;;5.25;3.45;;;23.00;43.10;;;;;;4986690;28;44653;-64
2021/12/24 16:44:09;;;;;;;4.32;3.20;;;22.90;43.00;;;;;;4975708;28;43438;-64
2021/12/24 16:46:38;;;;;;;5.28;3.20;;;22.90;43.00;;;;;;4981021;28;43609;-63
2021/12/24 16:49:05;;;;;;;4.88;3.13;;;22.90;43.10;;;;;;4985044;28;43498;-64
2021/12/24 16:51:33;;;;;;;4.00;2.72;;;22.90;43.00;;;;;;4980464;28;43584;-64
2021/12/24 16:54:00;;;;;;;3.70;2.72;;;22.90;43.00;;;;;;4986776;28;43411;-64
2021/12/24 16:56:28;;;;;;;3.70;2.80;;;22.90;43.00;;;;;;4978718;28;43487;-64
2021/12/24 16:58:55;;;;;;;4.55;2.85;;;22.90;43.00;;;;;;4982805;28;43535;-64
2021/12/24 17:01:23;;;;;;;3.25;2.55;;;22.90;43.00;;;;;;4980239;28;43804;-63
2021/12/24 17:03:51;;;;;;;2.92;2.25;;;22.90;43.00;;;;;;4979139;28;43532;-63
2021/12/24 17:06:18;;;;;;;5.22;2.80;;;22.80;43.00;;;;;;4986103;27;43511;-64
2021/12/24 17:08:46;;;;;;;3.30;2.42;;;22.80;43.00;;;;;;4980085;28;43475;-64
2021/12/24 17:11:14;;;;;;;3.67;2.40;;;22.80;43.00;;;;;;4978313;28;43781;-64
2021/12/24 17:13:41;;;;;;;3.65;2.45;;;22.80;43.00;;;;;;4985204;28;43494;-64
2021/12/24 17:16:09;;;;;;;3.58;2.35;;;22.80;43.10;;;;;;4989280;28;43505;-64
2021/12/24 17:18:36;;;;;;;3.55;2.60;;;22.80;43.10;;;;;;4979872;28;43599;-64
2021/12/24 17:21:04;;;;;;;4.20;2.47;;;22.80;43.00;;;;;;4980983;28;43764;-63
2021/12/24 17:23:31;;;;;;;2.80;2.35;;;22.70;43.00;;;;;;4994210;28;43518;-64
2021/12/24 17:25:59;;;;;;;2.33;2.10;;;22.70;43.00;;;;;;4979861;28;43443;-64
2021/12/24 17:28:26;;;;;;;3.45;2.47;;;22.70;43.00;;;;;;4979316;28;43982;-64
2021/12/24 17:30:55;;;;;;;3.42;2.10;;;22.70;43.00;;;;;;4978783;28;43804;-63
2021/12/24 17:33:23;;;;;;;2.72;2.15;;;22.70;42.90;;;;;;4979286;28;43560;-64
2021/12/24 17:35:51;;;;;;;3.05;2.10;;;22.70;43.10;;;;;;4986914;27;43482;-64
2021/12/24 17:38:19;;;;;;;2.22;1.70;;;22.70;43.10;;;;;;4980062;28;43964;-64
2021/12/24 17:40:49;;;;;;;2.58;2.00;;;22.70;43.10;;;;;;4987123;28;44145;-64
2021/12/24 17:43:18;;;;;;;3.50;2.25;;;22.70;43.20;;;;;;4986221;28;43456;-64
2021/12/24 17:45:45;;;;;;;1.95;1.77;;;22.70;43.20;;;;;;4975173;28;43462;-64
2021/12/24 17:48:13;;;;;;;2.55;1.60;;;22.60;43.10;;;;;;4979580;28;43520;-64
2021/12/24 17:50:41;;;;;;;2.33;1.92;;;22.70;43.20;;;;;;4980018;28;44749;-64
2021/12/24 17:53:09;;;;;;;2.20;1.80;;;22.60;43.10;;;;;;4981964;28;43736;-64
2021/12/24 17:55:39;;;;;;;2.60;1.80;;;22.60;43.10;;;;;;5005965;28;43448;-63
2021/12/24 17:58:07;;;;;;;1.70;1.60;;;22.60;43.10;;;;;;4978712;28;43490;-63
2021/12/24 18:00:36;;;;;;;1.50;1.38;;;22.60;43.20;;;;;;4982471;28;43857;-63
2021/12/24 18:03:05;;;;;;;1.92;1.52;;;22.60;43.10;;;;;;4990310;28;43515;-63
2021/12/24 18:05:34;;;;;;;2.10;1.75;;;22.60;43.20;;;;;;4989791;28;43464;-64
2021/12/24 18:08:02;;;;;;;2.00;1.60;;;22.60;43.20;;;;;;4985794;28;43596;-63
2021/12/24 18:10:29;;;;;;;1.60;1.50;;;22.60;43.20;;;;;;4987038;28;45314;-64
2021/12/24 18:12:57;;;;;;;2.97;1.67;;;22.60;43.20;;;;;;4991619;28;43435;-63
2021/12/24 18:15:29;;;;;;;2.15;1.50;;;22.60;43.20;;;;;;4989358;28;43441;-64
2021/12/24 18:17:59;;;;;;;2.20;1.70;;;22.60;43.10;;;;;;4993136;28;43684;-64
2021/12/24 18:20:27;;;;;;;1.73;1.30;;;22.60;43.20;;;;;;4979293;28;43816;-63
2021/12/24 18:22:55;;;;;;;2.22;1.60;;;22.60;43.10;;;;;;4977196;28;43707;-63
2021/12/24 18:25:23;;;;;;;1.60;1.50;;;22.60;43.20;;;;;;4977250;28;43569;-64
2021/12/24 18:27:51;;;;;;;2.00;1.80;;;22.60;43.20;;;;;;4980363;28;43454;-64
2021/12/24 18:30:20;;;;;;;1.90;1.55;;;22.60;43.20;;;;;;4980725;28;43793;-62
2021/12/24 18:32:50;;;;;;;1.80;1.40;;;22.50;43.10;;;;;;4981954;28;43600;-64
2021/12/24 18:35:19;;;;;;;2.35;1.10;;;22.50;43.10;;;;;;5007458;28;43596;-63
2021/12/24 18:40:23;;;;;;;1.75;1.50;;;22.50;43.10;;;;;;4993491;27;44976;-63
2021/12/24 18:42:51;;;;;;;1.35;1.25;;;22.50;43.10;;;;;;4976600;28;43516;-65
2021/12/24 18:45:19;;;;;;;1.65;1.30;;;22.50;43.10;;;;;;4987953;28;43454;-64
2021/12/24 18:47:47;;;;;;;1.92;1.30;;;22.50;43.10;;;;;;5001671;28;43606;-64
2021/12/24 18:50:15;;;;;;;1.33;1.20;;;22.50;43.00;;;;;;4978980;28;44693;-64
2021/12/24 18:52:43;;;;;;;1.33;1.23;;;22.50;43.00;;;;;;4980127;28;44004;-64
2021/12/24 18:55:10;;;;;;;1.45;1.35;;;22.50;43.00;;;;;;5005362;28;43509;-64
2021/12/24 18:57:40;;;;;;;1.30;1.20;;;22.50;43.00;;;;;;4980364;28;43651;-64
2021/12/24 19:00:09;;;;;;;1.42;1.10;;;22.50;43.00;;;;;;4982152;28;44786;-64
2021/12/24 19:02:37;;;;;;;1.40;1.30;;;22.50;43.00;;;;;;4978948;28;44020;-64
2021/12/24 19:05:05;;;;;;;1.15;1.10;;;22.50;43.10;;;;;;4977989;28;43493;-64
2021/12/24 19:07:33;;;;;;;1.95;1.38;;;22.40;43.00;;;;;;4977734;28;43531;-63
2021/12/24 19:10:00;;;;;;;1.58;1.30;;;22.40;43.00;;;;;;4981135;28;43744;-64
2021/12/24 19:12:28;;;;;;;1.15;1.08;;;22.40;43.10;;;;;;4983100;28;43991;-63
2021/12/24 19:14:56;;;;;;;1.30;1.10;;;22.40;43.10;;;;;;4984848;28;43400;-63
2021/12/24 19:17:23;;;;;;;1.25;1.15;;;22.40;43.10;;;;;;4987202;28;43605;-64
2021/12/24 19:19:51;;;;;;;1.42;1.25;;;22.40;43.10;;;;;;4980401;28;44061;-63
2021/12/24 19:22:21;;;;;;;1.25;1.15;;;22.30;43.00;;;;;;4982297;28;43551;-64